Time;durP1;ratioP1;P1;durP2;ratioP2;P2;SDS_P1;SDS_P2;PMS_P1;PMS_P2;Temp;Humidity;BMP_temperature;BMP_pressure;BME280_temperature;BME280_humidity;BME280_pressure;Samples;Min_cycle;Max_cycle;Signal;HPM_P1;HPM_P2
2022/04/27 00:01:40;;;;;;;7.70;5.00;;;21.00;48.60;;;;;;220672;1267;25230;-69
2022/04/27 00:06:45;;;;;;;7.90;5.20;;;20.90;48.60;;;;;;220897;1267;22539;-72
2022/04/27 00:11:50;;;;;;;6.60;4.70;;;20.90;48.70;;;;;;220586;1267;22687;-70
2022/04/27 00:16:54;;;;;;;7.20;5.00;;;20.90;48.80;;;;;;220790;1267;24235;-70
2022/04/27 00:21:59;;;;;;;7.90;5.10;;;20.80;48.70;;;;;;220382;1267;22570;-69
2022/04/27 00:27:06;;;;;;;6.80;4.80;;;20.80;48.90;;;;;;220717;1267;24228;-68
2022/04/27 00:32:11;;;;;;;8.20;5.60;;;20.80;49.20;;;;;;220830;1267;24156;-69
2022/04/27 00:37:15;;;;;;;7.50;5.10;;;20.80;48.90;;;;;;220865;1267;24424;-69
2022/04/27 00:42:22;;;;;;;9.70;5.80;;;20.70;48.90;;;;;;220717;1267;26601;-69
2022/04/27 00:47:28;;;;;;;8.60;5.30;;;20.70;48.70;;;;;;221070;1267;24425;-70
2022/04/27 00:52:33;;;;;;;8.20;5.10;;;20.60;49.00;;;;;;221091;1267;24204;-66
2022/04/27 00:57:40;;;;;;;9.10;5.20;;;20.60;49.30;;;;;;220525;1267;22548;-70
2022/04/27 01:02:45;;;;;;;7.40;5.00;;;20.60;49.20;;;;;;220883;1267;22556;-69
2022/04/27 01:07:50;;;;;;;7.40;5.00;;;20.50;49.00;;;;;;220617;1267;22535;-70
2022/04/27 01:12:59;;;;;;;8.40;5.10;;;20.50;49.20;;;;;;220702;1267;25232;-70
2022/04/27 01:18:03;;;;;;;8.00;5.20;;;20.50;49.10;;;;;;220683;1267;22601;-68
2022/04/27 01:23:09;;;;;;;8.40;5.40;;;20.50;49.20;;;;;;220643;1266;22535;-68
2022/04/27 01:28:24;;;;;;;8.60;5.40;;;20.40;49.10;;;;;;220844;1268;24346;-67
2022/04/27 01:33:38;;;;;;;7.50;5.20;;;20.40;49.50;;;;;;220635;1267;24336;-70
2022/04/27 01:38:52;;;;;;;7.70;5.40;;;20.40;49.20;;;;;;220413;1267;22601;-69
2022/04/27 01:44:01;;;;;;;8.70;5.60;;;20.30;49.20;;;;;;220772;1267;22531;-68
2022/04/27 01:49:07;;;;;;;7.80;5.10;;;20.30;49.30;;;;;;220781;1267;24193;-68
2022/04/27 01:54:15;;;;;;;8.20;5.50;;;20.30;49.20;;;;;;220533;1267;24247;-67
2022/04/27 01:59:29;;;;;;;7.20;4.80;;;20.30;49.30;;;;;;220335;1267;25445;-69
2022/04/27 02:04:40;;;;;;;6.50;4.40;;;20.60;49.00;;;;;;220970;1268;22531;-64
2022/04/27 02:09:44;;;;;;;7.10;4.90;;;21.00;47.70;;;;;;220518;1267;22580;-71
2022/04/27 02:14:49;;;;;;;7.60;5.10;;;21.30;47.10;;;;;;220468;1267;23532;-68
2022/04/27 02:19:52;;;;;;;7.30;5.00;;;21.50;46.70;;;;;;221130;1267;22591;-68
2022/04/27 02:24:58;;;;;;;6.80;4.80;;;21.70;46.30;;;;;;220505;1267;24277;-68
2022/04/27 02:30:04;;;;;;;7.80;5.60;;;21.80;46.00;;;;;;220647;1270;24250;-68
2022/04/27 02:35:09;;;;;;;7.70;5.20;;;21.90;45.80;;;;;;220605;1267;24292;-68
2022/04/27 02:40:14;;;;;;;7.40;4.80;;;22.00;45.60;;;;;;220475;1268;24300;-59
2022/04/27 02:45:18;;;;;;;7.50;5.50;;;22.10;45.50;;;;;;220507;1267;25354;-68
2022/04/27 02:55:45;;;;;;;10.20;5.20;;;22.20;45.30;;;;;;220464;1267;25241;-69
2022/04/27 03:00:50;;;;;;;8.60;4.90;;;22.20;45.30;;;;;;220695;1267;24217;-68
2022/04/27 03:05:54;;;;;;;7.90;5.00;;;22.10;45.40;;;;;;220714;1267;24058;-69
2022/04/27 03:10:59;;;;;;;7.80;5.30;;;22.00;45.60;;;;;;220598;1268;22820;-67
2022/04/27 03:16:16;;;;;;;8.30;5.40;;;21.90;45.90;;;;;;221075;1268;22553;-68
2022/04/27 03:21:20;;;;;;;8.20;5.60;;;21.60;46.40;;;;;;220805;1267;25461;-70
2022/04/27 03:26:25;;;;;;;7.40;4.90;;;21.50;47.00;;;;;;220870;1268;23961;-70
2022/04/27 03:31:31;;;;;;;7.50;5.20;;;21.40;47.10;;;;;;220618;1267;23022;-71
2022/04/27 03:36:35;;;;;;;9.60;5.50;;;21.30;46.90;;;;;;221122;1267;23960;-68
2022/04/27 03:41:39;;;;;;;8.00;5.70;;;21.30;47.00;;;;;;220784;1267;24393;-69
2022/04/27 03:46:44;;;;;;;9.70;5.10;;;21.30;47.10;;;;;;221045;1267;24214;-68
2022/04/27 03:51:53;;;;;;;9.50;5.70;;;21.20;47.20;;;;;;220967;1267;22553;-69
2022/04/27 03:56:58;;;;;;;8.00;5.50;;;21.10;47.30;;;;;;220905;1267;23355;-68
2022/04/27 04:02:03;;;;;;;8.60;6.00;;;21.10;47.40;;;;;;220666;1267;25522;-67
2022/04/27 04:07:07;;;;;;;8.70;5.70;;;21.10;48.00;;;;;;220639;1267;25378;-68
2022/04/27 04:12:28;;;;;;;8.10;5.80;;;21.10;47.80;;;;;;221007;1267;22638;-68
2022/04/27 04:17:47;;;;;;;9.00;5.80;;;21.00;47.50;;;;;;220963;1267;22548;-71
2022/04/27 04:23:26;;;;;;;8.30;5.60;;;21.00;47.50;;;;;;220008;1269;540718;-69
2022/04/27 04:28:56;;;;;;;9.10;6.00;;;20.90;47.70;;;;;;220676;1267;22544;-72
2022/04/27 04:34:00;;;;;;;8.30;5.80;;;20.90;47.80;;;;;;220634;1267;22558;-70
2022/04/27 04:39:04;;;;;;;9.30;5.90;;;20.80;47.70;;;;;;220863;1269;25228;-65
2022/04/27 04:44:12;;;;;;;8.50;5.90;;;20.80;47.80;;;;;;221037;1267;24208;-71
2022/04/27 04:49:37;;;;;;;8.30;5.40;;;20.80;47.90;;;;;;220429;1267;24273;-69
2022/04/27 04:54:51;;;;;;;8.60;5.60;;;20.70;47.90;;;;;;220523;1267;24254;-69
2022/04/27 05:00:17;;;;;;;8.50;5.70;;;20.70;47.90;;;;;;220369;1267;24508;-72
2022/04/27 05:05:39;;;;;;;8.50;6.10;;;20.60;48.00;;;;;;220584;1267;26635;-70
2022/04/27 05:11:00;;;;;;;8.20;5.30;;;20.60;48.00;;;;;;220500;1268;24424;-70
2022/04/27 05:16:33;;;;;;;9.20;5.40;;;20.60;48.10;;;;;;220277;1268;22624;-70
2022/04/27 05:22:10;;;;;;;7.30;5.40;;;20.60;48.10;;;;;;220610;1268;22601;-70
2022/04/27 05:27:49;;;;;;;7.50;5.20;;;20.60;48.40;;;;;;220093;1267;25391;-70
2022/04/27 05:33:31;;;;;;;8.00;5.70;;;20.50;48.10;;;;;;220738;1267;24188;-73
2022/04/27 05:38:35;;;;;;;8.10;5.60;;;20.50;48.10;;;;;;220631;1267;24258;-69
2022/04/27 05:43:58;;;;;;;7.60;5.60;;;20.50;48.10;;;;;;220470;1267;25357;-68
2022/04/27 05:49:30;;;;;;;8.90;5.80;;;20.50;48.10;;;;;;220267;1268;23180;-70
2022/04/27 05:55:09;;;;;;;8.20;5.50;;;20.50;48.20;;;;;;220399;1267;24289;-69
2022/04/27 06:00:50;;;;;;;8.70;5.90;;;20.50;48.10;;;;;;220303;1267;22531;-70
2022/04/27 06:06:01;;;;;;;7.70;5.70;;;20.50;48.20;;;;;;220411;1268;24251;-72
2022/04/27 06:11:05;;;;;;;7.90;5.30;;;20.50;48.20;;;;;;220581;1268;22547;-68
2022/04/27 06:16:24;;;;;;;7.50;4.80;;;20.50;48.10;;;;;;220436;1267;22553;-69
2022/04/27 06:21:37;;;;;;;8.60;5.20;;;20.50;48.20;;;;;;220807;1267;24403;-70
2022/04/27 06:26:41;;;;;;;8.30;5.40;;;20.50;48.20;;;;;;221023;1270;22551;-74
2022/04/27 06:31:45;;;;;;;7.50;5.00;;;20.50;48.30;;;;;;220968;1268;25458;-69
2022/04/27 06:36:50;;;;;;;7.70;5.30;;;20.50;48.40;;;;;;220625;1268;22609;-73
2022/04/27 06:42:13;;;;;;;7.80;5.50;;;20.40;48.30;;;;;;220665;1268;24424;-70
2022/04/27 06:47:35;;;;;;;8.40;5.80;;;20.40;48.40;;;;;;220795;1268;25290;-69
2022/04/27 06:52:59;;;;;;;7.20;5.00;;;20.50;48.70;;;;;;220815;1268;22860;-70
2022/04/27 06:58:21;;;;;;;6.70;4.70;;;20.40;48.40;;;;;;220607;1267;22977;-70
2022/04/27 07:03:42;;;;;;;6.90;4.70;;;20.40;48.30;;;;;;220442;1270;22820;-70
2022/04/27 07:08:47;;;;;;;8.70;5.70;;;20.40;48.40;;;;;;220938;1267;24336;-71
2022/04/27 07:13:51;;;;;;;7.00;4.90;;;20.40;48.40;;;;;;220780;1268;22684;-70
2022/04/27 07:18:55;;;;;;;7.50;5.20;;;20.50;48.40;;;;;;220751;1268;24428;-70
2022/04/27 07:24:02;;;;;;;7.80;4.90;;;20.50;48.50;;;;;;220780;1268;22550;-71
2022/04/27 07:29:08;;;;;;;9.00;5.60;;;20.50;48.50;;;;;;221078;1270;22993;-69
2022/04/27 07:34:11;;;;;;;7.50;4.90;;;20.50;48.40;;;;;;221040;1269;24246;-75
2022/04/27 07:39:17;;;;;;;11.40;6.20;;;20.50;48.50;;;;;;220848;1270;24407;-72
2022/04/27 07:44:20;;;;;;;6.90;4.60;;;20.50;48.50;;;;;;220789;1269;23216;-71
2022/04/27 07:49:24;;;;;;;6.00;4.60;;;20.50;48.50;;;;;;220523;1267;27776;-73
2022/04/27 07:54:28;;;;;;;7.30;4.90;;;20.50;48.10;;;;;;220861;1269;24419;-72
2022/04/27 07:59:31;;;;;;;7.50;5.00;;;20.50;48.50;;;;;;220585;1270;24249;-75
2022/04/27 08:04:35;;;;;;;7.00;4.80;;;20.50;48.50;;;;;;220649;1267;22632;-71
2022/04/27 08:09:39;;;;;;;7.40;4.50;;;20.50;48.50;;;;;;220652;1268;22690;-71
2022/04/27 08:14:43;;;;;;;6.60;4.30;;;20.50;48.50;;;;;;220486;1268;22535;-72
2022/04/27 08:19:46;;;;;;;6.40;4.70;;;20.50;48.60;;;;;;220671;1267;22551;-72
2022/04/27 08:24:51;;;;;;;6.30;4.40;;;20.50;48.50;;;;;;220807;1268;27801;-71
2022/04/27 08:29:55;;;;;;;6.40;4.20;;;20.60;49.20;;;;;;221091;1268;24282;-69
2022/04/27 08:35:02;;;;;;;6.50;4.50;;;20.60;48.60;;;;;;221089;1268;25658;-71
2022/04/27 08:40:07;;;;;;;6.70;4.20;;;20.50;48.60;;;;;;220420;1268;25518;-70
2022/04/27 08:45:10;;;;;;;6.30;4.10;;;20.60;48.90;;;;;;220964;1268;25408;-73
2022/04/27 08:50:19;;;;;;;6.50;4.40;;;20.60;48.60;;;;;;220524;1268;22599;-71
2022/04/27 08:55:23;;;;;;;8.00;4.60;;;20.60;48.60;;;;;;220633;1268;22636;-69
2022/04/27 09:00:28;;;;;;;6.20;4.10;;;20.60;48.60;;;;;;220778;1270;22557;-71
2022/04/27 09:05:32;;;;;;;7.10;4.60;;;20.60;48.50;;;;;;220850;1268;22881;-71
2022/04/27 09:10:36;;;;;;;6.70;4.20;;;20.60;48.50;;;;;;220642;1269;22532;-71
2022/04/27 09:15:41;;;;;;;6.10;4.40;;;20.70;48.40;;;;;;220817;1268;22550;-72
2022/04/27 09:20:48;;;;;;;6.80;4.60;;;20.70;48.50;;;;;;220639;1268;22547;-72
2022/04/27 09:26:16;;;;;;;7.30;4.50;;;20.70;48.40;;;;;;220923;1268;22553;-73
2022/04/27 09:31:33;;;;;;;5.40;3.80;;;20.80;48.30;;;;;;220875;1268;22986;-74
2022/04/27 09:36:37;;;;;;;5.80;4.30;;;20.80;48.30;;;;;;220804;1268;22538;-70
2022/04/27 09:41:47;;;;;;;8.00;4.70;;;20.80;48.20;;;;;;220794;1268;25233;-71
2022/04/27 09:46:52;;;;;;;6.00;4.00;;;20.80;48.20;;;;;;220754;1268;24476;-75
2022/04/27 09:51:56;;;;;;;6.20;4.10;;;20.90;48.30;;;;;;220741;1268;24425;-70
2022/04/27 09:57:05;;;;;;;5.40;4.00;;;20.80;48.20;;;;;;220846;1268;22558;-71
2022/04/27 10:02:21;;;;;;;6.30;4.20;;;20.80;48.20;;;;;;220563;1268;22831;-69
2022/04/27 10:07:27;;;;;;;5.50;4.00;;;20.80;48.30;;;;;;220756;1268;22538;-71
2022/04/27 10:12:35;;;;;;;5.40;3.40;;;20.80;48.30;;;;;;220700;1268;24294;-73
2022/04/27 10:17:40;;;;;;;5.50;3.80;;;20.80;48.30;;;;;;220584;1268;22559;-71
2022/04/27 10:22:43;;;;;;;6.50;4.00;;;20.80;48.30;;;;;;220935;1268;25305;-69
2022/04/27 10:27:48;;;;;;;5.70;4.00;;;20.80;47.90;;;;;;220708;1268;22648;-71
2022/04/27 10:32:51;;;;;;;5.10;3.90;;;20.80;48.30;;;;;;220561;1268;24419;-71
2022/04/27 10:38:02;;;;;;;4.70;3.50;;;20.80;48.30;;;;;;220701;1268;22544;-72
2022/04/27 10:43:08;;;;;;;5.60;3.90;;;20.80;48.40;;;;;;220968;1268;23061;-70
2022/04/27 10:48:21;;;;;;;6.40;4.10;;;20.80;48.40;;;;;;220794;1268;22550;-71
2022/04/27 10:53:30;;;;;;;5.00;3.40;;;20.80;48.30;;;;;;220454;1268;22548;-65
2022/04/27 10:58:55;;;;;;;5.40;3.60;;;20.90;48.20;;;;;;220675;1268;24398;-64
2022/04/27 11:04:07;;;;;;;5.90;3.90;;;20.90;48.10;;;;;;220369;1268;24361;-71
2022/04/27 11:09:50;;;;;;;6.90;4.00;;;20.90;48.10;;;;;;220784;1268;22555;-71
2022/04/27 11:15:00;;;;;;;5.30;3.90;;;20.90;48.20;;;;;;220493;1268;24309;-70
2022/04/27 11:20:06;;;;;;;4.90;3.40;;;20.90;48.20;;;;;;220385;1270;25349;-71
2022/04/27 11:25:09;;;;;;;6.20;3.80;;;20.90;48.10;;;;;;220726;1267;24213;-67
2022/04/27 11:30:14;;;;;;;5.90;3.60;;;20.90;48.50;;;;;;220413;1270;23010;-71
2022/04/27 11:35:22;;;;;;;5.60;3.60;;;20.90;48.10;;;;;;220575;1267;22845;-70
2022/04/27 11:40:27;;;;;;;5.00;3.50;;;20.90;48.20;;;;;;220448;1270;23021;-70
2022/04/27 11:45:33;;;;;;;5.00;3.70;;;20.90;48.20;;;;;;220969;1268;23064;-71
2022/04/27 11:50:38;;;;;;;4.80;3.40;;;20.90;48.10;;;;;;220658;1267;26930;-68
2022/04/27 11:55:48;;;;;;;5.50;3.70;;;20.90;48.70;;;;;;220554;1267;22698;-72
2022/04/27 12:00:56;;;;;;;5.30;3.30;;;20.90;48.30;;;;;;220765;1267;22778;-72
2022/04/27 12:05:59;;;;;;;5.60;3.80;;;20.90;48.40;;;;;;220431;1267;22753;-70
2022/04/27 12:11:03;;;;;;;5.50;3.60;;;20.90;48.30;;;;;;220710;1268;22583;-72
2022/04/27 12:16:09;;;;;;;5.00;3.20;;;20.90;48.10;;;;;;220856;1268;22546;-67
2022/04/27 12:21:26;;;;;;;5.60;3.80;;;20.90;48.20;;;;;;220542;1267;24429;-70
2022/04/27 12:26:40;;;;;;;5.60;4.00;;;20.90;48.60;;;;;;220722;1267;24387;-71
2022/04/27 12:31:55;;;;;;;5.40;3.70;;;21.00;48.60;;;;;;220961;1268;25465;-69
2022/04/27 12:42:37;;;;;;;5.00;3.60;;;21.00;48.30;;;;;;220371;1268;22554;-71
2022/04/27 12:47:47;;;;;;;5.00;3.30;;;21.10;48.50;;;;;;220562;1268;24298;-69
2022/04/27 12:53:04;;;;;;;5.30;3.30;;;21.10;48.90;;;;;;220836;1267;22565;-71
2022/04/27 12:58:23;;;;;;;5.70;3.50;;;21.10;48.30;;;;;;220368;1267;24408;-71
2022/04/27 13:03:27;;;;;;;4.90;3.40;;;21.10;48.40;;;;;;220732;1267;25392;-71
2022/04/27 13:08:31;;;;;;;4.90;3.40;;;21.10;48.40;;;;;;220690;1267;22541;-74
2022/04/27 13:13:36;;;;;;;5.40;3.60;;;21.10;48.40;;;;;;220567;1267;22545;-71
2022/04/27 13:18:43;;;;;;;4.10;3.00;;;21.10;48.40;;;;;;220801;1267;22708;-69
2022/04/27 13:23:47;;;;;;;4.70;3.00;;;21.10;48.40;;;;;;220650;1267;22614;-68
2022/04/27 13:28:51;;;;;;;5.30;3.30;;;21.10;48.50;;;;;;220642;1268;22531;-70
2022/04/27 13:33:56;;;;;;;5.30;3.40;;;21.10;48.40;;;;;;220673;1267;22547;-70
2022/04/27 13:38:59;;;;;;;4.20;3.10;;;21.10;48.40;;;;;;220904;1267;24218;-70
2022/04/27 13:44:04;;;;;;;4.20;2.90;;;21.10;48.40;;;;;;220428;1267;22853;-71
2022/04/27 13:49:07;;;;;;;4.00;3.00;;;21.10;48.40;;;;;;220924;1267;26593;-69
2022/04/27 13:54:13;;;;;;;5.00;3.20;;;21.10;48.70;;;;;;220734;1268;22684;-71
2022/04/27 13:59:20;;;;;;;4.80;3.10;;;21.10;48.40;;;;;;220776;1267;25310;-69
2022/04/27 14:04:23;;;;;;;5.50;3.60;;;21.10;48.70;;;;;;220561;1267;22616;-71
2022/04/27 14:09:28;;;;;;;4.70;3.40;;;21.10;48.40;;;;;;220983;1267;24294;-68
2022/04/27 14:14:32;;;;;;;4.20;3.10;;;21.10;48.40;;;;;;220506;1268;22681;-69
2022/04/27 14:19:36;;;;;;;3.70;3.00;;;21.10;48.30;;;;;;220847;1265;22547;-75
2022/04/27 14:24:41;;;;;;;4.00;2.90;;;21.10;48.50;;;;;;220582;1267;22721;-69
2022/04/27 14:29:44;;;;;;;5.50;3.30;;;21.10;48.40;;;;;;220489;1267;24405;-71
2022/04/27 14:34:48;;;;;;;4.10;2.90;;;21.10;48.30;;;;;;220491;1268;22753;-68
2022/04/27 14:39:52;;;;;;;5.00;3.30;;;21.10;48.30;;;;;;220440;1267;22717;-73
2022/04/27 14:44:56;;;;;;;4.60;3.20;;;21.10;48.40;;;;;;220392;1267;24412;-73
2022/04/27 14:50:02;;;;;;;3.30;2.40;;;21.20;48.50;;;;;;220639;1267;22556;-71
2022/04/27 14:55:10;;;;;;;4.10;3.20;;;21.20;48.50;;;;;;220808;1267;23180;-71
2022/04/27 15:00:14;;;;;;;4.50;3.10;;;21.20;48.40;;;;;;220586;1268;22817;-69
2022/04/27 15:05:26;;;;;;;4.50;3.20;;;21.20;48.40;;;;;;220715;1267;24309;-71
2022/04/27 15:10:36;;;;;;;4.00;2.90;;;21.10;48.40;;;;;;220711;1267;25411;-70
2022/04/27 15:15:40;;;;;;;4.20;2.90;;;21.20;48.80;;;;;;220543;1267;24516;-71
2022/04/27 15:26:08;;;;;;;4.30;3.00;;;21.20;48.50;;;;;;220417;1267;24313;-69
2022/04/27 15:31:13;;;;;;;4.90;3.00;;;21.20;48.40;;;;;;220839;1268;25233;-68
2022/04/27 15:36:19;;;;;;;5.20;3.00;;;21.20;48.40;;;;;;220532;1267;22546;-68
2022/04/27 15:41:24;;;;;;;8.70;3.10;;;21.10;48.20;;;;;;220694;1268;24376;-70
2022/04/27 15:46:28;;;;;;;4.70;2.80;;;21.20;48.20;;;;;;220766;1267;22524;-67
2022/04/27 15:51:45;;;;;;;4.10;2.50;;;21.10;48.20;;;;;;221039;1268;22553;-71
2022/04/27 15:57:00;;;;;;;4.50;2.90;;;21.10;48.20;;;;;;220995;1267;22556;-68
2022/04/27 16:02:07;;;;;;;4.80;3.10;;;21.10;48.20;;;;;;220903;1267;22545;-69
2022/04/27 16:07:11;;;;;;;5.00;3.20;;;21.10;48.30;;;;;;220858;1268;22544;-70
2022/04/27 16:12:15;;;;;;;4.40;2.90;;;21.10;48.20;;;;;;220600;1267;22695;-68
2022/04/27 16:17:22;;;;;;;4.10;2.90;;;21.10;48.20;;;;;;220435;1267;22541;-70
2022/04/27 16:28:38;;;;;;;3.60;2.60;;;21.00;48.10;;;;;;220703;1268;24274;-73
2022/04/27 16:33:51;;;;;;;4.80;2.70;;;21.00;48.10;;;;;;220638;1267;24415;-69
2022/04/27 16:38:58;;;;;;;3.40;2.50;;;21.00;48.20;;;;;;220601;1267;24225;-68
2022/04/27 16:44:03;;;;;;;4.80;3.00;;;21.10;48.60;;;;;;220526;1267;24770;-70
2022/04/27 16:49:09;;;;;;;4.20;2.80;;;21.00;48.10;;;;;;220372;1268;22563;-68
2022/04/27 16:54:13;;;;;;;3.70;2.60;;;21.00;48.20;;;;;;221075;1268;22550;-69
2022/04/27 16:59:17;;;;;;;4.20;2.70;;;21.00;48.30;;;;;;220773;1268;22621;-69
2022/04/27 17:04:27;;;;;;;3.60;2.50;;;21.00;48.60;;;;;;220683;1267;22552;-71
2022/04/27 17:09:31;;;;;;;4.70;2.90;;;21.00;48.40;;;;;;220890;1267;22952;-68
2022/04/27 17:14:35;;;;;;;3.60;2.70;;;21.00;48.30;;;;;;220399;1267;22775;-72
2022/04/27 17:19:44;;;;;;;3.90;2.50;;;21.00;48.30;;;;;;220617;1267;22682;-70
2022/04/27 17:24:48;;;;;;;4.40;2.90;;;21.00;48.40;;;;;;220484;1267;25346;-68
2022/04/27 17:29:53;;;;;;;4.30;2.50;;;20.90;48.70;;;;;;220660;1267;22595;-70
2022/04/27 17:35:00;;;;;;;4.20;2.70;;;20.90;48.40;;;;;;220619;1267;22682;-69
2022/04/27 17:40:05;;;;;;;3.70;2.80;;;20.90;48.30;;;;;;220850;1267;23045;-69
2022/04/27 17:45:16;;;;;;;3.40;2.60;;;20.90;48.40;;;;;;220768;1267;22608;-69
2022/04/27 17:50:19;;;;;;;3.90;2.70;;;20.90;48.40;;;;;;220802;1267;24396;-69
2022/04/27 17:55:25;;;;;;;4.70;3.10;;;20.90;48.40;;;;;;220532;1267;24276;-67
2022/04/27 18:00:29;;;;;;;3.70;2.60;;;20.90;48.30;;;;;;220691;1266;24215;-69
2022/04/27 18:05:34;;;;;;;3.60;2.50;;;20.90;48.40;;;;;;220416;1268;23070;-69
2022/04/27 18:10:38;;;;;;;3.80;2.50;;;20.90;49.00;;;;;;220538;1267;22552;-66
2022/04/27 18:15:51;;;;;;;4.60;3.40;;;20.90;48.40;;;;;;220746;1267;25249;-71
2022/04/27 18:21:05;;;;;;;4.40;2.70;;;20.90;48.30;;;;;;221023;1267;22637;-71
2022/04/27 18:26:12;;;;;;;3.80;2.80;;;20.90;48.50;;;;;;220638;1267;25647;-67
2022/04/27 18:31:19;;;;;;;4.10;2.90;;;20.80;48.30;;;;;;220765;1267;22599;-69
2022/04/27 18:36:28;;;;;;;5.10;2.60;;;20.80;48.30;;;;;;221024;1267;25615;-69
2022/04/27 18:41:34;;;;;;;4.50;2.70;;;20.80;48.20;;;;;;220674;1267;22588;-69
2022/04/27 18:52:06;;;;;;;5.10;2.90;;;20.80;48.30;;;;;;220489;1269;25255;-69
2022/04/27 18:57:11;;;;;;;4.20;2.70;;;20.80;48.30;;;;;;220563;1268;22992;-68
2022/04/27 19:02:16;;;;;;;4.10;2.80;;;20.80;48.40;;;;;;220635;1268;22648;-69
2022/04/27 19:07:21;;;;;;;4.30;2.70;;;20.70;48.50;;;;;;220559;1266;22695;-68
2022/04/27 19:12:27;;;;;;;3.60;2.50;;;20.70;48.40;;;;;;220664;1267;22611;-72
2022/04/27 19:17:33;;;;;;;3.40;2.20;;;20.80;48.50;;;;;;220408;1267;22692;-66
2022/04/27 19:22:37;;;;;;;4.00;2.90;;;20.80;48.60;;;;;;220969;1267;22619;-67
2022/04/27 19:27:45;;;;;;;3.90;2.80;;;20.70;48.50;;;;;;220505;1268;22699;-68
2022/04/27 19:32:49;;;;;;;4.70;3.00;;;20.70;48.50;;;;;;220726;1267;24445;-69
2022/04/27 19:38:01;;;;;;;3.70;2.80;;;20.70;48.60;;;;;;220826;1267;25588;-67
2022/04/27 19:43:07;;;;;;;3.90;2.60;;;20.70;48.60;;;;;;220363;1267;24321;-71
2022/04/27 19:48:11;;;;;;;3.70;2.70;;;20.70;48.60;;;;;;220750;1270;22725;-69
2022/04/27 19:53:24;;;;;;;4.40;2.80;;;20.70;48.80;;;;;;220353;1267;26510;-69
2022/04/27 19:58:28;;;;;;;4.70;2.90;;;20.70;49.30;;;;;;220330;1267;24216;-68
2022/04/27 20:03:37;;;;;;;4.50;2.90;;;20.60;48.70;;;;;;220746;1267;22692;-70
2022/04/27 20:08:44;;;;;;;6.00;3.00;;;20.60;48.70;;;;;;220917;1267;22525;-72
2022/04/27 20:13:52;;;;;;;4.80;2.80;;;20.60;48.80;;;;;;220822;1267;22539;-68
2022/04/27 20:18:57;;;;;;;3.70;2.50;;;20.60;48.80;;;;;;220637;1268;22557;-70
2022/04/27 20:24:12;;;;;;;4.30;2.80;;;20.60;48.80;;;;;;220718;1267;24290;-72
2022/04/27 20:29:19;;;;;;;3.40;2.60;;;20.60;48.80;;;;;;220666;1267;25247;-69
2022/04/27 20:34:27;;;;;;;3.80;2.30;;;20.60;48.80;;;;;;220645;1267;22732;-69
2022/04/27 20:39:59;;;;;;;4.00;2.70;;;20.60;48.80;;;;;;220663;1267;24286;-70
2022/04/27 20:45:14;;;;;;;4.70;3.10;;;20.50;48.80;;;;;;220430;1266;24329;-67
2022/04/27 20:50:21;;;;;;;3.70;2.40;;;20.60;49.10;;;;;;221008;1268;22537;-68
2022/04/27 20:55:28;;;;;;;4.20;3.10;;;20.80;48.40;;;;;;220794;1267;22528;-71
2022/04/27 21:00:35;;;;;;;3.80;2.40;;;21.20;47.60;;;;;;220549;1267;25284;-68
2022/04/27 21:05:39;;;;;;;3.90;2.70;;;21.40;47.00;;;;;;220495;1266;22604;-67
2022/04/27 21:10:44;;;;;;;4.00;2.90;;;21.60;46.70;;;;;;220588;1267;24343;-68
2022/04/27 21:15:48;;;;;;;4.40;2.80;;;21.70;46.50;;;;;;220870;1267;22684;-68
2022/04/27 21:20:52;;;;;;;3.90;2.80;;;21.80;46.30;;;;;;220648;1267;22553;-68
2022/04/27 21:25:56;;;;;;;4.70;2.80;;;22.00;46.10;;;;;;220383;1267;22544;-67
2022/04/27 21:31:00;;;;;;;4.10;2.50;;;22.10;46.10;;;;;;220364;1268;24284;-68
2022/04/27 21:36:04;;;;;;;4.80;2.70;;;22.20;45.80;;;;;;220818;1267;22950;-68
2022/04/27 21:41:17;;;;;;;3.90;2.60;;;22.30;45.60;;;;;;220868;1267;24329;-69
2022/04/27 21:46:23;;;;;;;3.70;2.60;;;22.40;45.50;;;;;;220442;1267;25323;-67
2022/04/27 21:51:27;;;;;;;4.30;2.70;;;22.40;44.90;;;;;;220966;1267;22526;-66
2022/04/27 21:56:42;;;;;;;4.00;2.70;;;22.40;45.50;;;;;;220826;1268;23133;-69
2022/04/27 22:01:49;;;;;;;4.70;2.70;;;22.30;45.70;;;;;;220628;1267;24376;-68
2022/04/27 22:06:55;;;;;;;4.60;2.90;;;22.20;45.90;;;;;;220417;1267;22546;-69
2022/04/27 22:11:59;;;;;;;3.80;2.60;;;22.10;46.10;;;;;;220602;1265;24297;-66
2022/04/27 22:17:03;;;;;;;4.20;2.30;;;21.90;46.20;;;;;;220756;1267;25299;-66
2022/04/27 22:22:06;;;;;;;4.90;2.80;;;21.90;46.40;;;;;;220703;1267;22554;-70
2022/04/27 22:27:21;;;;;;;4.60;2.90;;;21.80;46.60;;;;;;220612;1267;22528;-67
2022/04/27 22:32:27;;;;;;;5.00;3.00;;;21.70;46.80;;;;;;220587;1267;22549;-73
2022/04/27 22:37:44;;;;;;;5.30;3.00;;;21.70;46.80;;;;;;220730;1267;24306;-69
2022/04/27 22:42:48;;;;;;;3.90;2.70;;;21.60;47.00;;;;;;220947;1267;24302;-71
2022/04/27 22:47:52;;;;;;;5.00;2.70;;;21.50;47.10;;;;;;220334;1266;24299;-69
2022/04/27 22:52:56;;;;;;;4.90;3.10;;;21.50;47.20;;;;;;220881;1268;22530;-73
2022/04/27 22:58:03;;;;;;;4.00;2.80;;;21.40;47.20;;;;;;220950;1267;24409;-68
2022/04/27 23:03:12;;;;;;;4.30;3.10;;;21.40;47.30;;;;;;220656;1268;22531;-68
2022/04/27 23:13:45;;;;;;;3.90;2.70;;;21.30;47.40;;;;;;220608;1267;22530;-68
2022/04/27 23:18:48;;;;;;;4.60;3.20;;;21.40;47.50;;;;;;220470;1267;22756;-69
2022/04/27 23:23:53;;;;;;;5.30;3.10;;;21.30;47.40;;;;;;220752;1268;25894;-69
2022/04/27 23:28:56;;;;;;;4.30;2.80;;;21.30;47.80;;;;;;220560;1268;24422;-72
2022/04/27 23:34:01;;;;;;;4.40;3.00;;;21.30;47.60;;;;;;220562;1268;24294;-68
2022/04/27 23:39:06;;;;;;;4.50;2.90;;;21.30;47.60;;;;;;220851;1267;22616;-68
2022/04/27 23:44:12;;;;;;;4.60;3.00;;;21.20;47.70;;;;;;220581;1268;23898;-69
2022/04/27 23:49:17;;;;;;;5.40;3.30;;;21.20;48.10;;;;;;220472;1267;25507;-68
2022/04/27 23:54:20;;;;;;;5.30;3.20;;;21.10;48.10;;;;;;220344;1268;22532;-65
2022/04/27 23:59:25;;;;;;;4.60;3.10;;;21.10;47.80;;;;;;220479;1267;26130;-68
